createdAt,value
2018-06-25T14:06:28.182Z,49.40
2018-06-25T14:07:00.851Z,49.70
2018-06-25T14:07:33.502Z,49.20
2018-06-25T14:08:06.243Z,49.70
2018-06-25T14:08:38.929Z,49.80
2018-06-25T14:09:12.046Z,49.60
2018-06-25T14:09:44.787Z,49.70
2018-06-25T14:10:17.443Z,49.40
2018-06-25T14:10:50.147Z,49.70
2018-06-25T14:11:22.843Z,50.10
2018-06-25T14:11:55.550Z,50.50
2018-06-25T14:12:28.296Z,50.60
2018-06-25T14:13:00.999Z,50.00
2018-06-25T14:13:33.710Z,50.10
2018-06-25T14:14:07.212Z,49.70
2018-06-25T14:14:39.938Z,49.90
2018-06-25T14:15:12.630Z,50.00
2018-06-25T14:15:45.371Z,50.20
2018-06-25T14:16:18.109Z,50.70
2018-06-25T14:16:50.877Z,51.10
2018-06-25T14:17:23.554Z,50.00
2018-06-25T14:17:56.279Z,49.70
2018-06-25T14:18:29.074Z,50.10
2018-06-25T14:19:01.819Z,50.40
2018-06-25T14:19:34.551Z,50.10
2018-06-25T14:20:07.312Z,49.50
2018-06-25T14:20:40.019Z,49.40
2018-06-25T14:21:12.747Z,49.60
2018-06-25T14:21:45.448Z,50.20
2018-06-25T14:22:18.174Z,49.80
2018-06-25T14:22:50.932Z,49.60
2018-06-25T14:23:23.647Z,49.40
2018-06-25T14:24:01.940Z,48.90
2018-06-25T14:24:40.514Z,48.90
2018-06-25T14:25:13.547Z,48.70
2018-06-25T14:25:51.978Z,48.50
2018-06-25T14:26:29.199Z,48.70
2018-06-25T14:27:07.675Z,48.50
2018-06-25T14:27:46.170Z,48.50
2018-06-25T14:28:32.938Z,48.40
2018-06-25T14:29:10.222Z,48.60
2018-06-25T14:29:42.895Z,49.10
2018-06-25T14:30:21.312Z,49.10
2018-06-25T14:30:59.587Z,49.10
2018-06-25T14:31:32.291Z,48.30
2018-06-25T14:32:14.516Z,48.10
2018-06-25T14:32:49.706Z,47.50
2018-06-25T14:33:27.955Z,48.10
2018-06-25T14:34:06.327Z,46.80
2018-06-25T14:34:39.298Z,47.00
2018-06-25T14:35:15.444Z,47.10
2018-06-25T14:35:48.131Z,47.00
2018-06-25T14:36:20.819Z,47.00
2018-06-25T14:36:53.495Z,46.60
2018-06-25T14:37:26.172Z,46.70
2018-06-25T14:37:58.826Z,47.40
2018-06-25T14:38:31.497Z,48.00
2018-06-25T14:39:07.826Z,47.70
2018-06-25T14:39:40.566Z,47.40
2018-06-25T14:40:13.265Z,47.10
2018-06-25T14:40:45.951Z,46.90
2018-06-25T14:41:18.630Z,46.90
2018-06-25T14:41:51.310Z,46.60
2018-06-25T14:42:23.994Z,46.90
2018-06-25T14:42:56.698Z,47.20
2018-06-25T14:43:29.450Z,46.90
2018-06-25T14:44:02.351Z,46.60
2018-06-25T14:44:35.054Z,46.80
2018-06-25T14:45:07.937Z,46.70
2018-06-25T14:45:40.631Z,47.00
2018-06-25T14:46:13.294Z,47.60
2018-06-25T14:46:45.983Z,47.80
2018-06-25T14:47:18.925Z,47.90
2018-06-25T14:47:51.618Z,48.00
2018-06-25T14:48:24.340Z,48.30
2018-06-25T14:48:57.002Z,48.40
2018-06-25T14:49:29.682Z,48.40
2018-06-25T14:50:02.407Z,49.70
2018-06-25T14:50:35.091Z,49.10
2018-06-25T14:51:07.763Z,49.30
2018-06-25T14:51:40.423Z,48.30
2018-06-25T14:52:13.110Z,48.20
2018-06-25T14:52:45.787Z,48.00
2018-06-25T14:53:18.463Z,47.90
2018-06-25T14:53:51.147Z,48.00
2018-06-25T14:54:23.834Z,47.70
2018-06-25T14:54:56.459Z,47.50
2018-06-25T14:56:01.758Z,47.80
2018-06-25T14:56:34.443Z,47.50
2018-06-25T14:57:07.135Z,47.50
2018-06-25T14:57:39.820Z,47.60
2018-06-25T14:58:12.475Z,48.10
2018-06-25T14:58:45.149Z,48.80
2018-06-25T14:59:17.858Z,47.80
2018-06-25T14:59:50.510Z,47.80
2018-06-25T15:00:23.174Z,47.90
2018-06-25T15:00:55.898Z,47.80
2018-06-25T15:01:28.587Z,48.10
2018-06-25T15:02:01.319Z,48.10
2018-06-25T15:02:33.994Z,47.90
2018-06-25T15:03:06.662Z,47.30
2018-06-25T15:03:39.334Z,47.30
2018-06-25T15:04:12.039Z,47.40
2018-06-25T15:04:44.706Z,47.70
2018-06-25T15:05:17.434Z,47.50
2018-06-25T15:05:50.138Z,46.90
2018-06-25T15:06:22.859Z,47.20
2018-06-25T15:06:55.553Z,46.80
2018-06-25T15:07:28.226Z,46.80
2018-06-25T15:08:00.930Z,46.60
2018-06-25T15:08:33.622Z,46.60
2018-06-25T15:09:08.331Z,47.00
2018-06-25T15:09:41.011Z,47.40
2018-06-25T15:10:13.771Z,47.40
2018-06-25T15:10:46.462Z,47.70
2018-06-25T15:11:19.139Z,48.40
2018-06-25T15:11:51.850Z,48.40
2018-06-25T15:12:24.554Z,48.10
2018-06-25T15:12:57.238Z,48.30
2018-06-25T15:13:29.958Z,48.50
2018-06-25T15:14:02.718Z,48.10
2018-06-25T15:14:35.395Z,48.70
2018-06-25T15:15:08.094Z,48.30
2018-06-25T15:15:40.762Z,48.20
2018-06-25T15:16:13.474Z,48.60
2018-06-25T15:16:46.150Z,48.80
2018-06-25T15:17:18.858Z,48.50
2018-06-25T15:17:51.562Z,48.60
2018-06-25T15:18:24.225Z,48.40
2018-06-25T15:18:56.919Z,48.70
2018-06-25T15:19:29.598Z,48.50
2018-06-25T15:20:02.396Z,48.10
2018-06-25T15:20:35.091Z,48.40
2018-06-25T15:21:07.826Z,48.50
2018-06-25T15:21:40.511Z,48.30
2018-06-25T15:22:13.253Z,48.50
2018-06-25T15:22:45.901Z,48.10
2018-06-25T15:23:18.599Z,48.00
2018-06-25T15:23:51.282Z,47.90
2018-06-25T15:24:23.950Z,48.30
2018-06-25T15:24:56.618Z,48.10
2018-06-25T15:25:29.282Z,48.30
2018-06-25T15:26:02.068Z,48.50
2018-06-25T15:26:34.750Z,48.40
2018-06-25T15:27:07.454Z,47.70
2018-06-25T15:27:40.275Z,47.80
2018-06-25T15:28:12.982Z,48.40
2018-06-25T15:28:45.651Z,48.60
2018-06-25T15:29:18.330Z,48.50
2018-06-25T15:30:23.578Z,48.20
2018-06-25T15:30:56.250Z,47.90
2018-06-25T15:31:28.914Z,47.80
2018-06-25T15:32:34.211Z,47.60
2018-06-25T15:33:06.895Z,47.60
2018-06-25T15:33:39.678Z,47.80
2018-06-25T15:34:12.363Z,48.40
2018-06-25T15:34:45.043Z,48.40
2018-06-25T15:35:17.750Z,48.60
2018-06-25T15:35:50.419Z,48.80
2018-06-25T15:36:23.080Z,48.50
2018-06-25T15:36:55.738Z,48.40
2018-06-25T15:37:28.874Z,48.50
2018-06-25T15:38:01.562Z,48.20
2018-06-25T15:39:08.654Z,48.20
2018-06-25T15:39:41.374Z,48.20
2018-06-25T15:40:14.107Z,48.70
2018-06-25T15:40:46.759Z,48.70
2018-06-25T15:41:19.495Z,48.70
2018-06-25T15:41:52.194Z,48.50
2018-06-25T15:42:25.056Z,48.40
2018-06-25T15:42:57.750Z,48.40
2018-06-25T15:43:30.509Z,48.30
2018-06-25T15:44:03.686Z,48.50
2018-06-25T15:44:36.399Z,48.60
2018-06-25T15:45:09.087Z,48.50
2018-06-25T15:45:41.771Z,48.80
2018-06-25T15:46:14.519Z,48.90
2018-06-25T15:46:47.174Z,49.00
2018-06-25T15:47:19.841Z,49.30
2018-06-25T15:47:52.582Z,49.20
2018-06-25T15:48:25.266Z,49.60
2018-06-25T15:48:57.974Z,49.40
2018-06-25T15:49:30.807Z,49.50
2018-06-25T15:50:04.027Z,49.80
2018-06-25T15:50:36.694Z,50.10
2018-06-25T15:51:09.363Z,50.00
2018-06-25T15:51:42.023Z,49.50
2018-06-25T15:52:14.746Z,49.30
2018-06-25T15:52:47.410Z,49.40
2018-06-25T15:53:20.076Z,49.40
2018-06-25T15:53:52.794Z,49.30
2018-06-25T15:54:25.539Z,48.40
2018-06-25T15:54:58.222Z,48.30
2018-06-25T15:55:30.926Z,48.90
2018-06-25T15:56:03.638Z,49.20
2018-06-25T15:56:36.325Z,49.20
2018-06-25T15:57:09.028Z,48.70
2018-06-25T15:57:41.702Z,48.30
2018-06-25T15:58:14.379Z,48.00
2018-06-25T15:58:47.064Z,48.20
2018-06-25T15:59:19.747Z,48.30
2018-06-25T15:59:52.488Z,48.30
2018-06-25T16:00:57.774Z,48.90
2018-06-25T16:01:30.473Z,49.10
2018-06-25T16:02:03.159Z,49.30
2018-06-25T16:02:35.822Z,49.80
2018-06-25T16:03:08.513Z,50.10
2018-06-25T16:03:41.190Z,50.30
2018-06-25T16:04:13.894Z,49.60
2018-06-25T16:04:46.578Z,49.50
2018-06-25T16:05:19.246Z,49.80
2018-06-25T16:05:51.921Z,49.80
2018-06-25T16:06:57.410Z,49.30
2018-06-25T16:07:30.083Z,49.10
2018-06-25T16:08:02.765Z,49.10
2018-06-25T16:08:35.439Z,48.90
2018-06-25T16:09:08.122Z,49.00
2018-06-25T16:09:40.775Z,49.10
2018-06-25T16:10:13.435Z,49.00
2018-06-25T16:10:46.117Z,49.00
2018-06-25T16:11:18.772Z,49.30
2018-06-25T16:11:51.455Z,49.60
2018-06-25T16:12:24.153Z,50.00
2018-06-25T16:12:56.826Z,49.70
2018-06-25T16:13:29.512Z,49.90
2018-06-25T16:14:02.710Z,50.00
2018-06-25T16:14:35.371Z,49.80
2018-06-25T16:15:08.047Z,49.20
2018-06-25T16:15:40.746Z,49.30
2018-06-25T16:16:13.405Z,49.50
2018-06-25T16:16:46.073Z,49.90
2018-06-25T16:17:18.783Z,49.80
2018-06-25T16:17:51.452Z,49.90
2018-06-25T16:18:24.135Z,50.00
2018-06-25T16:18:56.815Z,50.20
2018-06-25T16:19:29.498Z,50.40
2018-06-25T16:20:02.240Z,50.30
2018-06-25T16:20:34.934Z,50.50
2018-06-25T16:21:07.619Z,50.70
2018-06-25T16:21:40.460Z,50.80
2018-06-25T16:22:13.146Z,51.00
2018-06-25T16:22:45.870Z,51.00
2018-06-25T16:23:18.566Z,51.00
2018-06-25T16:23:51.231Z,51.00
2018-06-25T16:24:23.942Z,51.10
2018-06-25T16:24:56.639Z,51.40
2018-06-25T16:25:29.454Z,51.30
2018-06-25T16:26:02.755Z,51.30
2018-06-25T16:26:35.443Z,51.40
2018-06-25T16:27:08.130Z,51.70
2018-06-25T16:27:40.834Z,51.70
2018-06-25T16:28:13.532Z,51.90
2018-06-25T16:28:46.435Z,51.80
2018-06-25T16:29:51.593Z,52.50
2018-06-25T16:30:24.298Z,51.50
2018-06-25T16:30:56.957Z,51.40
2018-06-25T16:31:29.638Z,51.20
2018-06-25T16:32:02.318Z,51.20
2018-06-25T16:32:34.987Z,51.20
2018-06-25T16:33:07.751Z,51.10
2018-06-25T16:33:40.762Z,51.10
2018-06-25T16:34:13.538Z,51.10
2018-06-25T16:34:46.103Z,51.00
2018-06-25T16:35:18.777Z,51.10
2018-06-25T16:35:51.462Z,51.30
2018-06-25T16:36:24.158Z,51.50
2018-06-25T16:36:56.882Z,51.80
2018-06-25T16:37:29.578Z,52.20
2018-06-25T16:38:02.289Z,52.30
2018-06-25T16:38:34.982Z,51.80
2018-06-25T16:39:09.946Z,51.80
2018-06-25T16:39:42.647Z,51.90
2018-06-25T16:40:15.334Z,51.90
2018-06-25T16:40:48.120Z,52.00
2018-06-25T16:41:20.799Z,52.00
2018-06-25T16:41:53.486Z,52.20
2018-06-25T16:42:26.160Z,52.50
2018-06-25T16:42:58.838Z,53.00
2018-06-25T16:43:31.510Z,52.60
2018-06-25T16:44:04.374Z,52.40
2018-06-25T16:44:37.156Z,52.50
2018-06-25T16:45:09.846Z,52.80
2018-06-25T16:45:42.803Z,53.00
2018-06-25T16:46:15.523Z,53.10
2018-06-25T16:46:48.202Z,53.00
2018-06-25T16:47:20.905Z,52.20
2018-06-25T16:47:53.615Z,52.80
2018-06-25T16:48:26.280Z,52.70
2018-06-25T16:48:58.979Z,52.80
2018-06-25T16:49:31.662Z,52.60
2018-06-25T16:50:37.674Z,52.70
2018-06-25T16:51:10.370Z,52.80
2018-06-25T16:51:43.046Z,53.00
2018-06-25T16:52:15.742Z,53.00
2018-06-25T16:52:48.422Z,53.20
2018-06-25T16:53:21.110Z,53.30
2018-06-25T16:53:53.801Z,53.40
2018-06-25T16:54:26.490Z,53.50
2018-06-25T16:54:59.158Z,53.80
2018-06-25T16:55:31.865Z,53.80
2018-06-25T16:56:04.618Z,54.10
2018-06-25T16:56:37.295Z,54.20
2018-06-25T16:57:09.982Z,54.10
2018-06-25T16:57:42.676Z,54.60
2018-06-25T16:58:15.363Z,54.20
2018-06-25T16:58:48.043Z,54.30
2018-06-25T16:59:20.727Z,54.20
2018-06-25T16:59:53.412Z,54.20
2018-06-25T17:00:58.771Z,54.60
2018-06-25T17:01:31.595Z,54.60
2018-06-25T17:02:04.359Z,54.60
2018-06-25T17:02:37.055Z,54.60
2018-06-25T17:03:09.763Z,54.60
2018-06-25T17:03:42.506Z,54.60
2018-06-25T17:04:15.190Z,54.70
2018-06-25T17:04:47.871Z,54.90
2018-06-25T17:05:20.575Z,55.10
2018-06-25T17:05:53.271Z,54.90
2018-06-25T17:06:25.983Z,54.90
2018-06-25T17:06:58.762Z,55.10
2018-06-25T17:07:31.430Z,55.30
2018-06-25T17:08:04.431Z,55.20
2018-06-25T17:08:37.098Z,55.10
2018-06-25T17:09:11.352Z,55.40
2018-06-25T17:09:44.042Z,55.50
2018-06-25T17:10:16.759Z,55.40
2018-06-25T17:10:49.463Z,55.30
2018-06-25T17:11:22.190Z,55.20
2018-06-25T17:11:54.918Z,55.20
2018-06-25T17:12:27.634Z,54.90
2018-06-25T17:13:00.335Z,54.80
2018-06-25T17:13:33.059Z,54.40
2018-06-25T17:14:38.358Z,55.10
2018-06-25T17:15:11.143Z,54.50
2018-06-25T17:15:43.858Z,54.50
2018-06-25T17:16:16.795Z,54.50
2018-06-25T17:16:49.478Z,54.50
2018-06-25T17:17:22.213Z,54.50
2018-06-25T17:17:54.898Z,54.50
2018-06-25T17:18:27.606Z,54.40
2018-06-25T17:19:00.230Z,54.50
2018-06-25T17:19:32.960Z,54.40
2018-06-25T17:20:05.726Z,54.60
2018-06-25T17:20:38.390Z,54.60
2018-06-25T17:21:11.071Z,54.80
2018-06-25T17:21:43.755Z,55.10
2018-06-25T17:22:16.418Z,53.90
2018-06-25T17:22:49.111Z,54.40
2018-06-25T17:23:21.787Z,55.10
2018-06-25T17:24:27.082Z,54.70
2018-06-25T17:24:59.788Z,54.60
2018-06-25T17:25:32.478Z,54.70
2018-06-25T17:26:05.250Z,54.60
2018-06-25T17:26:37.934Z,54.70
2018-06-25T17:27:10.606Z,55.00
2018-06-25T17:27:43.282Z,54.90
2018-06-25T17:28:16.017Z,55.00
2018-06-25T17:28:48.696Z,55.20
2018-06-25T17:29:21.390Z,55.20
2018-06-25T17:29:54.087Z,55.00
2018-06-25T17:30:26.750Z,54.90
2018-06-25T17:30:59.423Z,54.90
2018-06-25T17:31:32.115Z,55.00
2018-06-25T17:32:04.883Z,55.30
2018-06-25T17:32:37.550Z,55.40
2018-06-25T17:33:10.316Z,55.40
2018-06-25T17:33:43.014Z,55.00
2018-06-25T17:34:15.687Z,55.00
2018-06-25T17:34:48.358Z,55.20
2018-06-25T17:35:21.058Z,55.40
2018-06-25T17:35:53.871Z,55.50
2018-06-25T17:36:27.266Z,55.20
2018-06-25T17:36:59.931Z,55.00
2018-06-25T17:37:32.579Z,55.00
2018-06-25T17:38:05.285Z,55.10
2018-06-25T17:38:38.091Z,55.10
2018-06-25T17:39:10.859Z,55.00
2018-06-25T17:39:43.530Z,55.30
2018-06-25T17:40:16.203Z,55.40
2018-06-25T17:40:48.883Z,55.30
2018-06-25T17:41:21.562Z,55.40
2018-06-25T17:41:54.240Z,55.40
2018-06-25T17:42:26.943Z,55.60
2018-06-25T17:42:59.624Z,55.60
2018-06-25T17:43:32.303Z,55.60
2018-06-25T17:44:05.019Z,55.70
2018-06-25T17:45:10.314Z,55.80
2018-06-25T17:45:43.015Z,55.80
2018-06-25T17:46:15.702Z,56.00
2018-06-25T17:46:48.378Z,55.80
2018-06-25T17:47:21.074Z,55.50
2018-06-25T17:47:53.768Z,55.50
2018-06-25T17:48:26.598Z,55.30
2018-06-25T17:48:59.164Z,55.30
2018-06-25T17:49:32.078Z,55.30
2018-06-25T17:50:05.109Z,55.40
2018-06-25T17:51:10.390Z,56.10
2018-06-25T17:51:43.114Z,55.60
2018-06-25T17:52:15.834Z,55.70
2018-06-25T17:52:48.494Z,55.60
2018-06-25T17:53:21.174Z,55.80
2018-06-25T17:53:53.842Z,56.00
2018-06-25T17:54:26.873Z,56.10
2018-06-25T17:54:59.556Z,55.70
2018-06-25T17:55:32.262Z,55.70
2018-06-25T17:56:05.132Z,55.60
2018-06-25T17:56:37.800Z,55.80
2018-06-25T17:57:10.478Z,56.10
2018-06-25T17:57:43.158Z,56.30
2018-06-25T17:58:15.984Z,56.50
2018-06-25T17:58:48.782Z,56.50
2018-06-25T17:59:21.560Z,56.50
2018-06-25T17:59:54.341Z,56.70
2018-06-25T18:00:27.038Z,56.60
2018-06-25T18:00:59.916Z,56.70
2018-06-25T18:01:32.610Z,56.70
2018-06-25T18:02:05.359Z,56.50
2018-06-25T18:02:38.075Z,57.00
2018-06-25T18:03:10.754Z,56.50
2018-06-25T18:03:43.898Z,56.50
2018-06-25T18:04:16.579Z,56.60
2018-06-25T18:04:49.310Z,56.70
2018-06-25T18:05:21.987Z,56.70
2018-06-25T18:05:54.659Z,56.70
2018-06-25T18:06:27.382Z,56.90
2018-06-25T18:07:00.088Z,57.10
2018-06-25T18:08:05.385Z,57.00
2018-06-25T18:08:38.078Z,57.00
2018-06-25T18:09:11.528Z,57.00
2018-06-25T18:09:44.202Z,57.00
2018-06-25T18:10:16.922Z,57.10
2018-06-25T18:10:49.623Z,57.20
2018-06-25T18:11:22.419Z,57.30
2018-06-25T18:11:55.174Z,57.50
2018-06-25T18:12:27.859Z,57.50
2018-06-25T18:13:00.527Z,57.40
2018-06-25T18:13:33.217Z,57.50
2018-06-25T18:14:05.930Z,57.50
2018-06-25T18:14:38.594Z,57.60
2018-06-25T18:15:11.330Z,57.80
2018-06-25T18:15:43.991Z,57.70
2018-06-25T18:16:16.647Z,57.80
2018-06-25T18:16:49.322Z,57.80
2018-06-25T18:17:22.026Z,57.60
2018-06-25T18:17:54.706Z,57.50
2018-06-25T18:18:27.374Z,57.60
2018-06-25T18:19:00.067Z,57.70
2018-06-25T18:20:05.385Z,57.80
2018-06-25T18:20:38.099Z,57.90
2018-06-25T18:21:10.783Z,57.90
2018-06-25T18:21:43.448Z,57.80
2018-06-25T18:22:16.125Z,57.80
2018-06-25T18:22:48.834Z,57.90
2018-06-25T18:23:21.511Z,58.10
2018-06-25T18:23:54.186Z,58.10
2018-06-25T18:24:26.858Z,58.10
2018-06-25T18:24:59.550Z,58.20
2018-06-25T18:25:32.226Z,58.20
2018-06-25T18:26:04.914Z,58.40
2018-06-25T18:26:37.618Z,58.40
2018-06-25T18:27:10.311Z,58.60
2018-06-25T18:27:43.030Z,58.70
2018-06-25T18:28:15.817Z,58.80
2018-06-25T18:28:48.454Z,58.90
2018-06-25T18:29:21.133Z,58.80
2018-06-25T18:29:53.830Z,58.80
2018-06-25T18:30:26.511Z,58.70
2018-06-25T18:30:59.210Z,58.70
2018-06-25T18:31:31.938Z,58.60
2018-06-25T18:32:04.651Z,58.70
2018-06-25T18:32:37.326Z,58.70
2018-06-25T18:33:10.069Z,59.00
2018-06-25T18:34:15.887Z,58.90
2018-06-25T18:34:48.578Z,59.10
2018-06-25T18:35:21.234Z,59.60
2018-06-25T18:35:53.927Z,59.40
2018-06-25T18:36:26.619Z,59.60
2018-06-25T18:36:59.318Z,59.60
2018-06-25T18:37:32.060Z,59.70
2018-06-25T18:38:04.751Z,59.60
2018-06-25T18:38:37.447Z,59.60
2018-06-25T18:39:12.255Z,59.50
2018-06-25T18:39:44.911Z,59.40
2018-06-25T18:40:17.662Z,59.50
2018-06-25T18:40:50.376Z,59.40
2018-06-25T18:41:23.065Z,59.70
2018-06-25T18:41:55.734Z,60.00
2018-06-25T18:42:28.426Z,59.60
2018-06-25T18:43:01.110Z,59.30
2018-06-25T18:43:33.791Z,59.20
2018-06-25T18:44:06.487Z,59.00
2018-06-25T18:44:39.212Z,59.40
2018-06-25T18:45:11.859Z,59.20
2018-06-25T18:45:44.523Z,59.00
2018-06-25T18:46:17.223Z,59.00
2018-06-25T18:46:50.405Z,58.90
2018-06-25T18:47:23.070Z,59.00
2018-06-25T18:47:55.774Z,59.00
2018-06-25T18:48:28.491Z,58.90
2018-06-25T18:49:01.263Z,58.70
2018-06-25T18:49:33.986Z,58.80
2018-06-25T18:50:06.703Z,59.50
2018-06-25T18:50:39.395Z,58.90
2018-06-25T18:51:12.191Z,59.00
2018-06-25T18:51:44.874Z,59.00
2018-06-25T18:52:17.574Z,59.10
2018-06-25T18:52:50.266Z,59.10
2018-06-25T18:53:22.958Z,59.00
2018-06-25T18:53:55.642Z,59.00
2018-06-25T18:54:28.322Z,59.20
2018-06-25T18:55:00.990Z,59.20
2018-06-25T18:55:33.746Z,59.30
2018-06-25T18:56:06.479Z,59.40
2018-06-25T18:56:39.151Z,59.50
2018-06-25T18:57:11.873Z,59.60
2018-06-25T18:57:44.609Z,59.80
2018-06-25T18:58:17.343Z,60.00
2018-06-25T18:58:50.031Z,60.20
2018-06-25T18:59:22.692Z,60.40
2018-06-25T18:59:55.371Z,60.40
2018-06-25T19:00:28.050Z,60.40
2018-06-25T19:01:00.771Z,60.50
2018-06-25T19:01:33.467Z,60.60
2018-06-25T19:02:06.150Z,60.70
2018-06-25T19:02:38.888Z,60.70
2018-06-25T19:03:11.578Z,61.00
2018-06-25T19:03:44.322Z,61.10
2018-06-25T19:04:16.998Z,61.10
2018-06-25T19:04:49.679Z,61.30
2018-06-25T19:05:22.497Z,61.40
2018-06-25T19:05:55.195Z,61.50
2018-06-25T19:06:27.883Z,61.70
2018-06-25T19:07:30.885Z,61.70
2018-06-25T19:08:03.547Z,61.70
2018-06-25T19:08:36.223Z,61.80
2018-06-25T19:09:10.822Z,61.80
2018-06-25T19:09:43.126Z,62.00
2018-06-25T19:10:15.853Z,62.10
2018-06-25T19:10:48.562Z,62.20
2018-06-25T19:11:21.230Z,63.00
2018-06-25T19:11:53.927Z,62.40
2018-06-25T19:12:26.651Z,62.50
2018-06-25T19:12:59.475Z,62.90
2018-06-25T19:13:32.130Z,62.90
2018-06-25T19:14:04.819Z,63.10
2018-06-25T19:14:37.503Z,63.20
2018-06-25T19:15:10.207Z,63.30
2018-06-25T19:15:42.895Z,63.90
2018-06-25T19:16:15.579Z,63.40
2018-06-25T19:16:48.262Z,63.50
2018-06-25T19:17:20.966Z,63.50
2018-06-25T19:17:53.881Z,63.60
2018-06-25T19:18:26.546Z,63.80
2018-06-25T19:18:59.377Z,63.80
2018-06-25T19:19:32.027Z,64.00
2018-06-25T19:20:04.986Z,64.10
2018-06-25T19:20:37.655Z,64.20
2018-06-25T19:21:10.361Z,64.60
2018-06-25T19:21:43.040Z,64.80
2018-06-25T19:22:15.698Z,64.70
2018-06-25T19:22:48.383Z,64.80
2018-06-25T19:23:21.060Z,65.10
2018-06-25T19:23:53.855Z,65.10
2018-06-25T19:24:26.533Z,65.10
2018-06-25T19:24:59.206Z,65.20
2018-06-25T19:25:31.887Z,65.30
2018-06-25T19:26:37.415Z,66.10
2018-06-25T19:27:42.742Z,65.80
2018-06-25T19:28:15.430Z,65.80
2018-06-25T19:28:48.124Z,66.00
2018-06-25T19:29:20.815Z,66.20
2018-06-25T19:29:53.502Z,66.10
2018-06-25T19:30:26.216Z,66.00
2018-06-25T19:30:58.910Z,66.00
2018-06-25T19:31:31.635Z,66.00
2018-06-25T19:32:04.392Z,66.00
2018-06-25T19:32:37.126Z,65.90
2018-06-25T19:33:09.943Z,66.00
2018-06-25T19:33:42.662Z,66.30
2018-06-25T19:34:15.322Z,66.40
2018-06-25T19:34:48.007Z,66.40
2018-06-25T19:35:20.707Z,66.40
2018-06-25T19:35:53.386Z,66.40
2018-06-25T19:36:26.074Z,66.50
2018-06-25T19:36:58.767Z,66.50
2018-06-25T19:37:31.631Z,66.60
2018-06-25T19:38:04.350Z,66.70
2018-06-25T19:38:37.022Z,66.90
2018-06-25T19:39:11.408Z,67.00
2018-06-25T19:39:44.082Z,67.00
2018-06-25T19:40:16.818Z,67.10
2018-06-25T19:40:49.466Z,67.30
2018-06-25T19:41:22.132Z,67.20
2018-06-25T19:41:54.802Z,67.50
2018-06-25T19:42:27.547Z,67.40
2018-06-25T19:43:00.222Z,67.50
2018-06-25T19:43:32.894Z,67.70
2018-06-25T19:44:05.630Z,67.80
2018-06-25T19:44:38.314Z,67.90
2018-06-25T19:45:10.997Z,68.00
2018-06-25T19:45:43.672Z,68.00
2018-06-25T19:46:16.351Z,68.00
2018-06-25T19:46:49.086Z,67.80
2018-06-25T19:47:22.484Z,67.60
2018-06-25T19:47:55.175Z,67.60
2018-06-25T19:48:27.854Z,67.70
2018-06-25T19:49:00.546Z,67.70
2018-06-25T19:49:33.232Z,67.70
2018-06-25T19:50:06.218Z,67.50
2018-06-25T19:50:38.902Z,67.50
2018-06-25T19:51:11.629Z,67.70
2018-06-25T19:52:16.919Z,67.90
2018-06-25T19:52:49.606Z,68.20
2018-06-25T19:53:22.273Z,68.40
2018-06-25T19:53:54.987Z,68.30
2018-06-25T19:54:27.663Z,68.40
2018-06-25T19:55:32.958Z,68.40
2018-06-25T19:56:05.626Z,68.50
2018-06-25T19:56:38.338Z,68.50
2018-06-25T19:57:43.638Z,68.90
2018-06-25T19:58:16.318Z,68.60
2018-06-25T19:58:48.990Z,68.70
2018-06-25T19:59:21.683Z,68.90
2018-06-25T19:59:54.390Z,69.00
2018-06-25T20:00:27.075Z,69.00
2018-06-25T20:00:59.819Z,69.00
2018-06-25T20:01:32.515Z,69.70
2018-06-25T20:02:05.231Z,69.20
2018-06-25T20:02:38.038Z,69.30
2018-06-25T20:03:10.698Z,69.40
2018-06-25T20:03:43.362Z,69.30
2018-06-25T20:04:16.203Z,69.40
2018-06-25T20:04:48.882Z,69.40
2018-06-25T20:05:21.746Z,69.40
2018-06-25T20:05:54.457Z,69.30
2018-06-25T20:06:27.130Z,69.20
2018-06-25T20:06:59.818Z,69.10
2018-06-25T20:07:32.535Z,69.10
2018-06-25T20:08:05.270Z,69.00
2018-06-25T20:08:37.954Z,68.90
2018-06-25T20:09:11.886Z,69.20
2018-06-25T20:09:44.606Z,69.20
2018-06-25T20:10:17.303Z,69.40
2018-06-25T20:10:49.998Z,69.40
2018-06-25T20:11:22.676Z,69.40
2018-06-25T20:11:55.429Z,69.40
2018-06-25T20:12:28.124Z,69.40
2018-06-25T20:13:00.794Z,69.30
2018-06-25T20:13:33.475Z,69.30
2018-06-25T20:14:06.218Z,69.20
2018-06-25T20:14:38.927Z,69.30
2018-06-25T20:15:11.633Z,69.20
2018-06-25T20:15:44.319Z,69.30
2018-06-25T20:16:16.975Z,69.30
2018-06-25T20:16:49.696Z,69.30
2018-06-25T20:17:22.706Z,69.30
2018-06-25T20:17:55.390Z,69.30
2018-06-25T20:18:28.071Z,69.30
2018-06-25T20:19:00.879Z,69.30
2018-06-25T20:19:33.622Z,69.30
2018-06-25T20:20:06.545Z,69.20
2018-06-25T20:20:39.266Z,69.00
2018-06-25T20:21:11.946Z,68.90
2018-06-25T20:21:44.666Z,68.80
2018-06-25T20:22:17.469Z,68.90
2018-06-25T20:22:50.150Z,68.80
2018-06-25T20:23:22.863Z,68.60
2018-06-25T20:23:55.578Z,68.70
2018-06-25T20:24:28.264Z,68.80
2018-06-25T20:25:33.582Z,68.80
2018-06-25T20:26:06.359Z,68.90
2018-06-25T20:26:39.122Z,68.80
2018-06-25T20:27:12.246Z,68.80
2018-06-25T20:28:17.582Z,68.70
2018-06-25T20:28:50.270Z,68.70
2018-06-25T20:29:22.958Z,68.70
2018-06-25T20:29:55.655Z,69.20
2018-06-25T20:30:28.374Z,68.60
2018-06-25T20:31:01.115Z,68.60
2018-06-25T20:31:33.810Z,68.70
2018-06-25T20:32:06.939Z,68.70
2018-06-25T20:32:39.626Z,68.70
2018-06-25T20:33:12.311Z,68.70
2018-06-25T20:33:45.057Z,68.70
2018-06-25T20:34:17.723Z,68.80
2018-06-25T20:34:50.432Z,68.80
2018-06-25T20:35:23.103Z,68.80
2018-06-25T20:35:55.750Z,68.80
2018-06-25T20:36:28.515Z,68.80
2018-06-25T20:37:01.198Z,68.80
2018-06-25T20:37:33.898Z,68.70
2018-06-25T20:38:08.372Z,68.90
2018-06-25T20:38:41.078Z,69.30
2018-06-25T20:39:13.802Z,69.00
2018-06-25T20:39:46.490Z,69.00
2018-06-25T20:40:19.161Z,69.10
2018-06-25T20:40:51.851Z,69.20
2018-06-25T20:41:24.546Z,69.20
2018-06-25T20:41:57.235Z,69.30
2018-06-25T20:42:29.934Z,69.30
2018-06-25T20:43:02.595Z,69.90
2018-06-25T20:43:35.278Z,69.50
2018-06-25T20:44:07.974Z,69.40
2018-06-25T20:44:40.878Z,69.40
2018-06-25T20:45:13.549Z,69.40
2018-06-25T20:45:46.234Z,69.50
2018-06-25T20:46:18.898Z,69.60
2018-06-25T20:46:51.624Z,69.60
2018-06-25T20:47:24.281Z,70.00
2018-06-25T20:47:56.970Z,70.20
2018-06-25T20:48:29.686Z,69.60
2018-06-25T20:49:02.401Z,69.60
2018-06-25T20:49:35.107Z,69.70
2018-06-25T20:50:07.805Z,69.80
2018-06-25T20:50:40.474Z,69.80
2018-06-25T20:51:13.166Z,69.80
2018-06-25T20:51:45.894Z,69.90
2018-06-25T20:52:18.582Z,69.90
2018-06-25T20:52:51.259Z,69.70
2018-06-25T20:53:23.940Z,69.70
2018-06-25T20:53:56.623Z,69.80
2018-06-25T20:54:29.302Z,69.80
2018-06-25T20:55:02.019Z,69.90
2018-06-25T20:55:34.734Z,69.90
2018-06-25T20:56:07.467Z,70.00
2018-06-25T20:56:40.155Z,69.90
2018-06-25T20:57:45.487Z,70.00
2018-06-25T20:58:18.162Z,70.00
2018-06-25T20:58:50.834Z,70.20
2018-06-25T20:59:23.518Z,70.10
2018-06-25T20:59:56.191Z,70.00
2018-06-25T21:00:28.918Z,70.70
2018-06-25T21:01:01.635Z,70.00
2018-06-25T21:01:35.102Z,70.00
2018-06-25T21:02:07.818Z,70.00
2018-06-25T21:02:40.494Z,70.00
2018-06-25T21:03:13.187Z,70.00
2018-06-25T21:03:45.870Z,70.00
2018-06-25T21:04:18.543Z,70.00
2018-06-25T21:04:51.223Z,70.00
2018-06-25T21:05:23.907Z,70.00
2018-06-25T21:05:56.592Z,69.90
2018-06-25T21:06:29.288Z,69.70
2018-06-25T21:07:01.983Z,70.20
2018-06-25T21:07:34.770Z,69.80
2018-06-25T21:08:07.450Z,69.70
2018-06-25T21:08:40.146Z,69.70
2018-06-25T21:09:12.859Z,69.60
2018-06-25T21:09:45.527Z,69.60
2018-06-25T21:10:18.242Z,69.60
2018-06-25T21:10:50.934Z,69.50
2018-06-25T21:11:23.714Z,69.60
2018-06-25T21:11:56.454Z,69.80
2018-06-25T21:12:29.130Z,69.70
2018-06-25T21:13:01.812Z,69.80
2018-06-25T21:13:34.523Z,69.80
2018-06-25T21:14:07.210Z,69.80
2018-06-25T21:14:39.878Z,69.90
2018-06-25T21:15:12.622Z,70.00
2018-06-25T21:15:45.310Z,70.00
2018-06-25T21:16:18.007Z,70.10
2018-06-25T21:16:50.762Z,70.10
2018-06-25T21:17:23.421Z,70.10
2018-06-25T21:17:56.183Z,70.10
2018-06-25T21:18:28.910Z,70.00
2018-06-25T21:19:01.668Z,70.00
2018-06-25T21:19:34.414Z,70.20
2018-06-25T21:20:07.143Z,70.20
2018-06-25T21:20:39.831Z,70.20
2018-06-25T21:21:12.523Z,70.20
2018-06-25T21:21:45.259Z,70.20
2018-06-25T21:22:17.974Z,70.30
2018-06-25T21:22:50.696Z,70.30